Time;durP1;ratioP1;P1;durP2;ratioP2;P2;SDS_P1;SDS_P2;PMS_P1;PMS_P2;Temp;Humidity;BMP_temperature;BMP_pressure;BME280_temperature;BME280_humidity;BME280_pressure;Samples;Min_cycle;Max_cycle;Signal;HPM_P1;HPM_P2
2022/02/08 00:00:10;;;;;;;1.00;1.00;;;;;;;4.23;67.46;100179.05;103294;1276;108594;-67
2022/02/08 00:03:02;;;;;;;1.00;1.00;;;;;;;4.23;67.71;100184.67;103480;1276;101542;-68
2022/02/08 00:05:29;;;;;;;1.00;1.00;;;;;;;4.25;67.46;100189.41;103355;1275;138221;-66
2022/02/08 00:07:57;;;;;;;1.00;1.00;;;;;;;4.25;67.60;100189.59;103408;1276;94307;-67
2022/02/08 00:10:27;;;;;;;1.00;1.00;;;;;;;4.26;67.60;100191.34;103374;1276;137411;-68
2022/02/08 00:12:57;;;;;;;1.00;1.00;;;;;;;4.24;67.65;100193.98;103689;1276;107750;-68
2022/02/08 00:15:26;;;;;;;1.00;1.00;;;;;;;4.23;67.70;100202.77;103363;1276;138925;-69
2022/02/08 00:17:53;;;;;;;1.00;1.00;;;;;;;4.27;67.63;100202.59;103433;1276;108355;-67
2022/02/08 00:20:22;;;;;;;1.00;1.00;;;;;;;4.27;67.69;100207.52;103512;1276;94511;-69
2022/02/08 00:22:50;;;;;;;1.00;1.00;;;;;;;4.24;67.83;100209.80;103379;1276;137413;-68
2022/02/08 00:25:18;;;;;;;0.90;0.90;;;;;;;4.22;67.62;100212.80;103492;1276;108332;-68
2022/02/08 00:27:45;;;;;;;1.00;1.00;;;;;;;4.23;67.93;100217.02;103251;1276;138395;-67
2022/02/08 00:30:13;;;;;;;0.90;0.90;;;;;;;4.23;67.79;100216.13;103477;1276;108293;-69
2022/02/08 00:32:41;;;;;;;1.10;1.10;;;;;;;4.19;67.92;100223.52;103495;1276;94574;-67
2022/02/08 00:35:09;;;;;;;1.00;1.00;;;;;;;4.18;68.01;100228.27;103287;1276;140592;-65
2022/02/08 00:37:37;;;;;;;1.00;1.00;;;;;;;4.16;68.10;100231.44;103487;1276;108396;-68
2022/02/08 00:40:06;;;;;;;1.00;1.00;;;;;;;4.17;68.16;100235.48;103449;1276;138484;-68
2022/02/08 00:42:35;;;;;;;0.90;0.90;;;;;;;4.19;68.09;100234.59;103577;1276;109129;-68
2022/02/08 00:47:51;;;;;;;0.90;0.90;;;;;;;4.19;68.33;100243.02;103420;1276;137719;-68
2022/02/08 00:50:18;;;;;;;1.00;1.00;;;;;;;4.22;68.25;100245.66;103590;1276;108476;-67
2022/02/08 00:52:47;;;;;;;1.00;1.00;;;;;;;4.23;68.08;100240.21;103418;1276;138085;-68
2022/02/08 00:55:14;;;;;;;1.00;1.00;;;;;;;4.23;68.13;100238.44;103550;1275;109046;-68
2022/02/08 00:57:43;;;;;;;1.00;1.00;;;;;;;4.24;68.12;100239.16;103463;1276;138135;-68
2022/02/08 01:00:11;;;;;;;1.00;1.00;;;;;;;4.28;68.13;100240.02;103764;1276;94425;-69
2022/02/08 01:02:39;;;;;;;1.00;1.00;;;;;;;4.29;68.14;100241.59;103461;1276;108427;-68
2022/02/08 01:05:11;;;;;;;1.10;1.10;;;;;;;4.31;67.99;100244.93;103526;1275;137649;-66
2022/02/08 01:07:39;;;;;;;1.00;1.00;;;;;;;4.26;68.02;100247.93;103460;1276;109255;-68
2022/02/08 01:10:09;;;;;;;1.00;1.00;;;;;;;4.24;68.08;100248.28;103358;1276;138551;-69
2022/02/08 01:12:37;;;;;;;1.00;1.00;;;;;;;4.22;68.11;100248.29;103723;1276;94397;-69
2022/02/08 01:15:06;;;;;;;0.90;0.90;;;;;;;4.20;68.32;100255.50;103522;1276;108353;-67
2022/02/08 01:17:35;;;;;;;1.00;1.00;;;;;;;4.16;68.32;100257.09;103467;1276;138438;-68
2022/02/08 01:20:14;;;;;;;1.00;1.00;;;;;;;4.13;68.46;100261.66;103557;1276;108800;-67
2022/02/08 01:22:42;;;;;;;1.00;1.00;;;;;;;4.20;68.62;100262.88;103426;1276;138032;-66
2022/02/08 01:25:18;;;;;;;0.90;0.90;;;;;;;4.23;68.49;100267.45;103563;1276;95625;-67
2022/02/08 01:27:52;;;;;;;1.00;1.00;;;;;;;4.26;68.49;100270.77;103374;1276;138023;-67
2022/02/08 01:30:29;;;;;;;1.00;1.00;;;;;;;4.27;68.23;100273.94;103472;1276;99607;-67
2022/02/08 01:38:05;;;;;;;1.00;1.00;;;;;;;4.20;68.35;100286.08;103451;1276;94342;-67
2022/02/08 01:51:05;;;;;;;0.90;0.90;;;;;;;4.22;68.45;100303.30;103463;1276;95001;-67
2022/02/08 01:53:33;;;;;;;0.90;0.90;;;;;;;4.27;68.61;100305.56;103432;1276;138158;-66
2022/02/08 01:56:03;;;;;;;0.90;0.90;;;;;;;4.26;68.29;100305.40;103515;1276;99324;-68
2022/02/08 01:58:30;;;;;;;1.00;1.00;;;;;;;4.19;68.54;100312.62;103408;1276;137475;-69
2022/02/08 02:01:07;;;;;;;0.90;0.90;;;;;;;4.18;68.58;100314.89;103510;1276;94741;-68
2022/02/08 02:03:38;;;;;;;1.00;1.00;;;;;;;4.22;68.59;100317.88;103611;1276;138220;-67
2022/02/08 02:06:23;;;;;;;1.00;1.00;;;;;;;4.20;68.73;100320.86;103421;1277;108563;-68
2022/02/08 02:08:52;;;;;;;1.00;1.00;;;;;;;4.17;68.72;100324.57;103625;1276;99374;-66
2022/02/08 02:11:20;;;;;;;1.00;1.00;;;;;;;4.14;68.82;100326.66;103462;1276;138392;-68
2022/02/08 02:13:50;;;;;;;1.00;1.00;;;;;;;4.21;68.91;100330.71;103551;1276;95424;-68
2022/02/08 02:16:33;;;;;;;1.00;1.00;;;;;;;4.30;68.76;100333.34;103558;1276;137433;-68
2022/02/08 02:19:00;;;;;;;1.00;1.00;;;;;;;4.32;68.53;100335.80;103482;1275;108277;-69
2022/02/08 02:21:32;;;;;;;1.00;1.00;;;;;;;4.30;68.39;100340.19;103504;1276;138114;-68
2022/02/08 02:24:00;;;;;;;0.90;0.90;;;;;;;4.34;68.46;100348.80;103457;1276;109421;-68
2022/02/08 02:26:30;;;;;;;1.00;1.00;;;;;;;4.36;68.53;100350.02;103539;1274;96014;-68
2022/02/08 02:28:58;;;;;;;1.00;1.00;;;;;;;4.35;68.40;100357.05;103425;1276;137592;-67
2022/02/08 02:31:27;;;;;;;1.20;1.20;;;;;;;4.33;68.42;100357.77;103693;1276;108326;-68
2022/02/08 02:33:55;;;;;;;1.00;1.00;;;;;;;4.31;68.35;100364.09;103337;1276;138437;-69
2022/02/08 02:36:22;;;;;;;0.90;0.90;;;;;;;4.28;68.38;100369.36;103535;1276;108596;-67
2022/02/08 02:38:52;;;;;;;1.00;1.00;;;;;;;4.27;68.56;100366.55;103478;1276;94893;-68
2022/02/08 02:41:20;;;;;;;1.00;1.00;;;;;;;4.30;68.65;100371.48;103368;1276;137708;-68
2022/02/08 02:43:49;;;;;;;1.00;1.00;;;;;;;4.32;68.59;100377.44;103471;1276;108347;-68
2022/02/08 02:46:18;;;;;;;0.90;0.90;;;;;;;4.33;68.43;100379.20;103944;1276;138104;-68
2022/02/08 02:48:46;;;;;;;1.00;1.00;;;;;;;4.30;68.54;100383.42;103767;1276;108788;-68
2022/02/08 02:51:14;;;;;;;1.10;1.10;;;;;;;4.32;68.55;100390.10;103480;1276;94360;-69
2022/02/08 02:53:45;;;;;;;1.00;1.00;;;;;;;4.31;68.54;100388.34;103384;1276;138258;-68
2022/02/08 02:56:19;;;;;;;0.90;0.90;;;;;;;4.32;68.38;100395.55;103514;1276;109036;-66
2022/02/08 02:58:48;;;;;;;0.90;0.90;;;;;;;4.30;68.50;100399.42;103321;1276;137656;-67
2022/02/08 03:20:23;;;;;;;1.00;1.00;;;;;;;4.25;68.15;100443.71;103554;1276;94327;-68
2022/02/08 03:22:53;;;;;;;1.00;1.00;;;;;;;4.20;68.38;100447.04;103362;1276;141243;-68
2022/02/08 03:25:21;;;;;;;1.00;1.00;;;;;;;4.21;68.41;100456.02;103489;1276;97193;-67
2022/02/08 03:27:49;;;;;;;0.80;0.80;;;;;;;4.29;68.54;100461.11;103527;1276;137864;-66
2022/02/08 03:30:17;;;;;;;0.90;0.90;;;;;;;4.34;68.33;100465.88;103452;1276;95531;-67
2022/02/08 03:32:45;;;;;;;1.00;1.00;;;;;;;4.35;68.06;100470.27;103491;1276;94416;-68
2022/02/08 03:35:16;;;;;;;1.00;1.00;;;;;;;4.37;68.17;100479.56;103393;1276;137698;-69
2022/02/08 03:37:54;;;;;;;0.80;0.80;;;;;;;4.40;68.00;100478.15;103484;1278;99363;-68
2022/02/08 03:45:54;;;;;;;1.00;1.00;;;;;;;4.40;67.88;100486.08;103453;1276;138388;-68
2022/02/08 03:48:25;;;;;;;0.90;0.90;;;;;;;4.42;67.92;100488.36;103574;1276;108783;-68
2022/02/08 03:51:01;;;;;;;0.90;0.90;;;;;;;4.41;67.72;100494.70;103524;1276;99446;-66
2022/02/08 03:53:30;;;;;;;1.00;1.00;;;;;;;4.37;67.79;100496.79;103492;1276;138010;-68
2022/02/08 03:55:58;;;;;;;1.20;1.20;;;;;;;4.37;67.84;100505.41;103537;1276;94627;-67
2022/02/08 03:58:25;;;;;;;0.90;0.90;;;;;;;4.41;67.90;100511.91;103427;1276;138617;-67
2022/02/08 04:03:27;;;;;;;1.00;1.00;;;;;;;4.41;67.70;100513.67;103476;1277;98550;-66
2022/02/08 04:05:57;;;;;;;1.00;1.00;;;;;;;4.42;67.66;100515.95;103370;1276;139250;-67
2022/02/08 04:08:25;;;;;;;0.90;0.90;;;;;;;4.42;67.62;100520.53;103792;1276;94323;-67
2022/02/08 04:10:55;;;;;;;0.90;0.90;;;;;;;4.43;67.68;100528.97;103409;1276;137884;-67
2022/02/08 04:13:43;;;;;;;0.90;0.90;;;;;;;4.39;67.48;100534.06;103502;1276;108680;-67
2022/02/08 04:16:24;;;;;;;1.00;1.00;;;;;;;4.34;67.57;100541.09;103409;1276;138055;-68
2022/02/08 04:19:09;;;;;;;1.00;1.00;;;;;;;4.34;67.56;100549.52;103419;1276;108286;-68
2022/02/08 04:33:00;;;;;;;1.10;1.10;;;;;;;4.43;65.72;100578.19;103512;1276;108949;-68
2022/02/08 04:43:28;;;;;;;0.90;0.90;;;;;;;4.62;65.41;100579.80;103536;1276;98534;-67
2022/02/08 04:46:24;;;;;;;1.10;1.10;;;;;;;4.65;65.18;100577.00;103433;1276;137681;-67
2022/02/08 04:48:55;;;;;;;1.00;1.00;;;;;;;4.63;65.55;100577.52;103500;1276;95541;-67
2022/02/08 04:51:33;;;;;;;0.90;0.90;;;;;;;4.66;65.57;100579.09;103518;1276;94780;-67
2022/02/08 04:54:12;;;;;;;0.90;0.90;;;;;;;4.66;65.73;100580.67;103429;1276;138471;-67
2022/02/08 05:49:03;;;;;;;1.00;1.00;;;;;;;4.48;66.24;100631.46;103430;1276;108924;-68
2022/02/08 05:51:56;;;;;;;1.00;1.00;;;;;;;4.42;66.07;100638.13;103543;1276;97767;-68
2022/02/08 05:54:20;;;;;;;1.10;1.10;;;;;;;4.42;66.34;100643.42;103395;1276;137674;-65
2022/02/08 05:56:52;;;;;;;1.00;1.00;;;;;;;4.43;66.26;100641.83;103576;1276;94452;-67
2022/02/08 05:59:23;;;;;;;1.00;1.00;;;;;;;4.39;66.07;100642.88;103415;1276;138008;-68
2022/02/08 06:01:51;;;;;;;1.00;1.00;;;;;;;4.34;66.31;100640.40;103826;1276;108368;-69
2022/02/08 06:04:36;;;;;;;1.00;1.00;;;;;;;4.36;66.35;100644.45;103461;1276;138571;-68
2022/02/08 06:07:05;;;;;;;0.90;0.90;;;;;;;4.37;66.36;100643.39;103524;1276;108806;-68
2022/02/08 06:09:33;;;;;;;1.00;1.00;;;;;;;4.35;66.28;100647.44;103387;1276;94301;-68
2022/02/08 06:12:01;;;;;;;1.00;1.00;;;;;;;4.27;66.20;100653.56;103447;1274;137529;-66
2022/02/08 06:14:30;;;;;;;1.10;1.10;;;;;;;4.25;66.43;100657.25;103486;1276;108260;-65
2022/02/08 06:16:58;;;;;;;1.00;1.00;;;;;;;4.24;66.38;100656.02;103741;1276;138476;-65
2022/02/08 06:19:26;;;;;;;1.00;1.00;;;;;;;4.22;66.39;100657.23;103604;1278;108989;-69
2022/02/08 06:21:54;;;;;;;1.10;1.10;;;;;;;4.10;66.30;100660.19;103599;1276;94795;-65
2022/02/08 06:24:22;;;;;;;1.10;1.10;;;;;;;4.04;66.59;100662.95;103501;1276;137365;-67
2022/02/08 06:26:49;;;;;;;1.00;1.00;;;;;;;4.06;66.75;100663.85;103595;1276;108132;-65
2022/02/08 06:29:22;;;;;;;1.00;1.00;;;;;;;4.10;66.64;100667.90;103553;1276;138248;-66
2022/02/08 06:31:50;;;;;;;0.90;0.90;;;;;;;4.11;66.73;100671.77;103610;1276;107866;-66
2022/02/08 06:34:22;;;;;;;1.10;1.10;;;;;;;4.12;66.32;100677.41;103482;1276;138452;-65
2022/02/08 06:36:59;;;;;;;1.10;1.10;;;;;;;4.10;66.38;100681.61;103482;1276;95516;-66
2022/02/08 06:39:32;;;;;;;1.00;1.00;;;;;;;4.15;66.52;100683.92;103516;1276;109417;-66
2022/02/08 06:42:00;;;;;;;1.00;1.00;;;;;;;4.23;66.39;100684.30;103493;1276;138421;-66
2022/02/08 06:44:29;;;;;;;1.00;1.00;;;;;;;4.25;66.13;100684.13;103537;1276;109463;-66
2022/02/08 06:46:58;;;;;;;1.00;1.00;;;;;;;4.23;65.78;100685.02;103449;1276;137734;-67
2022/02/08 06:49:26;;;;;;;1.00;1.00;;;;;;;4.23;65.70;100685.19;103537;1276;95126;-66
2022/02/08 06:51:54;;;;;;;0.90;0.90;;;;;;;4.26;65.71;100687.48;103621;1276;108449;-66
2022/02/08 06:54:23;;;;;;;1.00;1.00;;;;;;;4.29;65.51;100690.31;103510;1276;137451;-67
2022/02/08 06:56:50;;;;;;;1.00;1.00;;;;;;;4.29;65.47;100691.19;103569;1276;108475;-65
2022/02/08 06:59:19;;;;;;;1.00;1.00;;;;;;;4.28;65.41;100695.22;103393;1276;137897;-67
2022/02/08 07:01:47;;;;;;;1.00;1.00;;;;;;;4.35;65.40;100696.66;103507;1276;94258;-66
2022/02/08 07:04:15;;;;;;;0.90;0.90;;;;;;;4.39;65.36;100696.50;103348;1276;137551;-66
2022/02/08 07:06:46;;;;;;;1.00;1.00;;;;;;;4.47;65.33;100695.30;103582;1276;97794;-66
2022/02/08 07:09:14;;;;;;;1.00;1.00;;;;;;;4.44;65.18;100693.52;103502;1276;108830;-66
2022/02/08 07:11:46;;;;;;;0.90;0.90;;;;;;;4.49;65.28;100693.02;103540;1276;138683;-65
2022/02/08 07:14:15;;;;;;;0.90;0.90;;;;;;;4.57;65.22;100688.82;103628;1276;95446;-67
2022/02/08 07:16:45;;;;;;;0.90;0.90;;;;;;;4.58;65.06;100689.53;103500;1276;137613;-66
2022/02/08 07:19:13;;;;;;;0.90;0.90;;;;;;;4.55;65.06;100692.52;103818;1276;98621;-65
2022/02/08 07:21:41;;;;;;;1.10;1.10;;;;;;;4.51;65.25;100691.09;103543;1276;109122;-66
2022/02/08 07:24:09;;;;;;;0.90;0.90;;;;;;;4.59;65.57;100691.81;103459;1276;138762;-66
2022/02/08 07:26:37;;;;;;;0.90;0.90;;;;;;;4.63;65.39;100693.77;103557;1276;95253;-66
2022/02/08 07:29:05;;;;;;;0.90;0.90;;;;;;;4.63;65.42;100694.30;103450;1276;138038;-66
2022/02/08 07:31:40;;;;;;;1.00;1.00;;;;;;;4.65;65.67;100687.43;103544;1276;99489;-65
2022/02/08 07:34:19;;;;;;;0.90;0.90;;;;;;;4.75;65.73;100690.98;103421;1276;138382;-67
2022/02/08 07:39:45;;;;;;;0.90;0.90;;;;;;;4.84;65.38;100695.92;103636;1276;96141;-66
2022/02/08 07:42:13;;;;;;;0.90;0.90;;;;;;;4.75;65.33;100698.72;103392;1276;138849;-66
2022/02/08 07:44:41;;;;;;;0.90;0.90;;;;;;;4.67;65.80;100699.40;103563;1276;99816;-65
2022/02/08 07:47:16;;;;;;;0.90;0.90;;;;;;;4.71;66.12;100702.92;103468;1276;138424;-65
2022/02/08 07:49:44;;;;;;;1.00;1.00;;;;;;;4.73;66.14;100707.34;103529;1276;94343;-66
2022/02/08 07:52:14;;;;;;;0.90;0.90;;;;;;;4.75;66.24;100705.58;103420;1276;136576;-66
2022/02/08 07:54:42;;;;;;;1.00;1.00;;;;;;;4.75;66.33;100703.46;103697;1276;108560;-65
2022/02/08 07:57:10;;;;;;;0.90;0.90;;;;;;;4.77;66.21;100701.36;103560;1276;99751;-66
2022/02/08 07:59:38;;;;;;;0.90;0.90;;;;;;;4.74;66.40;100697.13;103423;1276;138489;-66
2022/02/08 08:02:06;;;;;;;1.00;1.00;;;;;;;4.77;66.51;100703.83;103535;1276;94835;-65
2022/02/08 08:04:34;;;;;;;1.00;1.00;;;;;;;4.76;66.61;100701.02;103424;1276;138055;-66
2022/02/08 08:07:03;;;;;;;0.90;0.90;;;;;;;4.82;66.63;100702.61;103421;1276;107458;-66
2022/02/08 08:09:31;;;;;;;0.80;0.80;;;;;;;4.83;66.39;100703.13;103713;1278;99482;-65
2022/02/08 08:12:01;;;;;;;0.90;0.90;;;;;;;4.84;66.63;100703.66;103385;1277;137750;-65
2022/02/08 08:14:32;;;;;;;0.90;0.90;;;;;;;5.00;66.59;100701.94;103577;1276;94732;-65
2022/02/08 08:17:24;;;;;;;0.90;0.90;;;;;;;5.17;66.54;100703.70;103395;1278;138144;-66
2022/02/08 08:19:49;;;;;;;0.90;0.90;;;;;;;5.28;66.09;100701.09;103428;1277;108949;-65
2022/02/08 08:22:17;;;;;;;0.80;0.80;;;;;;;5.32;65.68;100700.55;103737;1277;138438;-66
2022/02/08 08:24:46;;;;;;;0.90;0.90;;;;;;;5.25;65.19;100700.90;103450;1275;108766;-66
2022/02/08 08:27:14;;;;;;;0.90;0.90;;;;;;;5.16;65.79;100700.54;103457;1278;94658;-65
2022/02/08 08:29:42;;;;;;;1.00;1.00;;;;;;;5.18;65.51;100707.58;103415;1277;138286;-66
2022/02/08 08:32:10;;;;;;;0.90;0.90;;;;;;;5.29;65.73;100706.35;103479;1277;108344;-63
2022/02/08 08:34:39;;;;;;;0.80;0.80;;;;;;;5.43;65.60;100705.83;103478;1277;137765;-63
2022/02/08 08:37:07;;;;;;;0.90;0.90;;;;;;;5.37;65.33;100704.42;103480;1276;108401;-65
2022/02/08 08:39:45;;;;;;;0.90;0.90;;;;;;;5.39;65.63;100705.48;103456;1277;94425;-65
2022/02/08 08:42:39;;;;;;;0.90;0.90;;;;;;;5.38;65.18;100704.26;103399;1278;138194;-65
2022/02/08 08:53:10;;;;;;;0.90;0.90;;;;;;;5.12;65.63;100708.11;103410;1277;138335;-66
2022/02/08 08:55:38;;;;;;;0.90;0.90;;;;;;;5.10;65.49;100704.23;103497;1278;94346;-65
2022/02/08 08:58:06;;;;;;;0.90;0.90;;;;;;;5.05;65.63;100698.59;103383;1277;138798;-65
2022/02/08 09:00:34;;;;;;;1.00;1.00;;;;;;;5.07;65.48;100702.29;103521;1278;98134;-63
2022/02/08 09:03:02;;;;;;;0.90;0.90;;;;;;;5.13;65.74;100700.36;103450;1277;108859;-65
2022/02/08 09:05:31;;;;;;;0.80;0.80;;;;;;;5.28;65.75;100699.14;103386;1277;138320;-64
2022/02/08 09:08:00;;;;;;;0.90;0.90;;;;;;;5.39;65.14;100704.06;103838;1277;94323;-66
2022/02/08 09:10:37;;;;;;;0.90;0.90;;;;;;;5.32;65.36;100704.77;103400;1278;138083;-64
2022/02/08 09:13:27;;;;;;;0.90;0.90;;;;;;;5.32;65.40;100702.67;103508;1277;99374;-65
2022/02/08 09:16:08;;;;;;;0.90;0.90;;;;;;;5.33;64.83;100705.30;103479;1277;108147;-66
2022/02/08 09:18:58;;;;;;;0.80;0.80;;;;;;;5.44;65.12;100698.61;103687;1277;139112;-66
2022/02/08 09:29:09;;;;;;;0.70;0.70;;;;;;;5.66;63.83;100696.12;103312;1277;138646;-64
2022/02/08 09:31:38;;;;;;;0.80;0.80;;;;;;;5.65;63.89;100687.85;103501;1277;94805;-64
2022/02/08 09:34:06;;;;;;;0.90;0.90;;;;;;;5.74;63.87;100693.12;103541;1277;94330;-63
2022/02/08 09:36:34;;;;;;;0.90;0.90;;;;;;;6.00;63.15;100686.38;103329;1276;138528;-65
2022/02/08 09:39:03;;;;;;;0.80;0.80;;;;;;;6.25;62.31;100690.70;103477;1276;99367;-65
2022/02/08 09:41:33;;;;;;;0.80;0.80;;;;;;;6.57;61.53;100694.63;103330;1276;138055;-65
2022/02/08 09:44:03;;;;;;;0.80;0.80;;;;;;;7.10;60.42;100686.70;103400;1277;94355;-66
2022/02/08 09:46:35;;;;;;;0.70;0.70;;;;;;;7.69;58.76;100676.66;103472;1277;138029;-66
2022/02/08 09:49:03;;;;;;;0.70;0.70;;;;;;;7.80;58.59;100667.19;103457;1277;107730;-65
2022/02/08 09:51:34;;;;;;;0.70;0.70;;;;;;;7.74;58.04;100665.66;103499;1277;99371;-65
2022/02/08 09:54:03;;;;;;;0.70;0.70;;;;;;;7.44;57.97;100664.19;103326;1277;137766;-64
2022/02/08 09:56:31;;;;;;;0.80;0.80;;;;;;;7.09;58.77;100663.06;103519;1277;94622;-64
2022/02/08 09:58:59;;;;;;;0.60;0.60;;;;;;;6.83;59.85;100669.06;103384;1277;138245;-65
2022/02/08 10:01:27;;;;;;;0.70;0.70;;;;;;;6.72;59.83;100668.27;103450;1277;108681;-66
2022/02/08 10:03:59;;;;;;;0.70;0.70;;;;;;;6.62;60.11;100660.91;103540;1277;100146;-65
2022/02/08 10:06:29;;;;;;;0.70;0.70;;;;;;;6.59;60.85;100660.39;103368;1276;138287;-64
2022/02/08 10:09:06;;;;;;;0.90;0.90;;;;;;;6.51;60.68;100647.02;103750;1277;94332;-65
2022/02/08 10:11:44;;;;;;;0.70;0.70;;;;;;;6.55;60.80;100639.08;103280;1277;138235;-66
2022/02/08 10:14:20;;;;;;;0.80;0.80;;;;;;;6.67;60.78;100640.42;103484;1277;107395;-65
2022/02/08 10:22:48;;;;;;;0.60;0.60;;;;;;;6.53;60.27;100629.02;103342;1278;137903;-66
2022/02/08 10:25:43;;;;;;;0.80;0.80;;;;;;;6.49;60.19;100618.98;103402;1276;94306;-65
2022/02/08 10:39:06;;;;;;;0.70;0.70;;;;;;;7.10;59.55;100583.95;103489;1276;94568;-65
2022/02/08 10:41:35;;;;;;;0.80;0.80;;;;;;;7.01;59.55;100576.45;103313;1276;137331;-65
2022/02/08 10:44:06;;;;;;;0.70;0.70;;;;;;;6.96;59.92;100580.54;103499;1276;99469;-64
2022/02/08 10:46:36;;;;;;;0.70;0.70;;;;;;;6.94;59.31;100584.80;103449;1277;138365;-66
2022/02/08 10:49:12;;;;;;;0.70;0.70;;;;;;;7.03;59.82;100587.55;103559;1277;94719;-66
2022/02/08 10:51:49;;;;;;;0.70;0.70;;;;;;;6.95;59.32;100582.67;103526;1276;94321;-66
2022/02/08 10:54:35;;;;;;;0.70;0.70;;;;;;;6.75;59.55;100576.48;103542;1276;137424;-64
2022/02/08 10:57:11;;;;;;;0.80;0.80;;;;;;;6.63;60.11;100567.75;103407;1276;98459;-66
2022/02/08 10:59:49;;;;;;;0.60;0.60;;;;;;;6.54;59.98;100566.75;103446;1276;138103;-66
2022/02/08 11:02:25;;;;;;;0.70;0.70;;;;;;;6.44;60.46;100569.83;103492;1276;94352;-64
2022/02/08 11:10:21;;;;;;;0.70;0.70;;;;;;;6.39;61.32;100569.50;103514;1277;99435;-65
2022/02/08 11:20:51;;;;;;;0.70;0.70;;;;;;;6.31;61.31;100552.80;103455;1276;108359;-65
2022/02/08 11:24:17;;;;;;;;;;;;;;;;;;;;;
2022/02/08 11:26:31;;;;;;;0.80;0.80;;;;;;;6.22;61.30;100559.38;103614;1276;107865;-66
2022/02/08 11:29:38;;;;;;;0.80;0.80;;;;;;;6.15;61.31;100561.35;103439;1276;138192;-66
2022/02/08 11:32:27;;;;;;;0.80;0.80;;;;;;;6.06;61.10;100562.98;103414;1276;94318;-66
2022/02/08 11:46:24;;;;;;;0.80;0.80;;;;;;;6.26;60.60;100517.73;103505;1276;94332;-65
2022/02/08 11:49:26;;;;;;;0.80;0.80;;;;;;;6.20;61.04;100521.84;103288;1277;137565;-66
2022/02/08 11:52:17;;;;;;;0.70;0.70;;;;;;;6.16;61.01;100527.49;103449;1276;99453;-65
2022/02/08 12:07:35;;;;;;;0.80;0.80;;;;;;;6.21;60.59;100506.84;104252;1275;108803;-64
2022/02/08 12:10:21;;;;;;;0.80;0.80;;;;;;;6.24;61.01;100505.77;103586;1276;94620;-66
2022/02/08 12:54:31;;;;;;;0.80;0.80;;;;;;;6.12;60.32;100438.15;103174;1280;139159;-66
2022/02/08 12:57:12;;;;;;;0.90;0.90;;;;;;;6.14;61.01;100435.84;103671;1276;108117;-65
2022/02/08 13:00:01;;;;;;;0.90;0.90;;;;;;;6.15;61.38;100432.83;103339;1276;138849;-65
2022/02/08 13:02:47;;;;;;;0.80;0.80;;;;;;;6.08;61.96;100429.89;103600;1276;108812;-65
2022/02/08 14:04:02;;;;;;;0.80;0.80;;;;;;;5.22;70.61;100364.16;103705;1276;94667;-65
2022/02/08 14:06:30;;;;;;;0.90;0.90;;;;;;;5.24;70.49;100353.77;103557;1276;138483;-67
2022/02/08 14:09:28;;;;;;;0.80;0.80;;;;;;;5.23;70.63;100350.77;103805;1277;99416;-66
2022/02/08 14:12:08;;;;;;;0.80;0.80;;;;;;;5.17;70.63;100346.94;103546;1276;137738;-66
2022/02/08 14:14:46;;;;;;;0.80;0.80;;;;;;;5.14;71.29;100338.50;103688;1276;94928;-65
2022/02/08 14:17:40;;;;;;;0.80;0.80;;;;;;;5.12;71.26;100335.52;103723;1276;94557;-66
2022/02/08 14:25:48;;;;;;;0.80;0.80;;;;;;;5.18;71.65;100338.48;103347;1276;138017;-66
2022/02/08 14:33:51;;;;;;;0.80;0.80;;;;;;;5.16;72.02;100329.86;103598;1276;108658;-66
2022/02/08 15:09:37;;;;;;;0.70;0.70;;;;;;;5.39;73.54;100289.77;103586;1276;94793;-65
2022/02/08 15:12:14;;;;;;;0.70;0.70;;;;;;;5.39;73.38;100283.79;103448;1276;137759;-66
2022/02/08 15:14:49;;;;;;;0.70;0.70;;;;;;;5.39;73.44;100281.14;103479;1276;106776;-65
2022/02/08 15:17:18;;;;;;;0.80;0.80;;;;;;;5.44;73.56;100275.47;103537;1276;99404;-65
2022/02/08 15:19:49;;;;;;;0.80;0.80;;;;;;;5.42;73.40;100278.13;103515;1276;137603;-66
2022/02/08 15:22:18;;;;;;;0.80;0.80;;;;;;;5.41;73.44;100279.73;103477;1276;94323;-67
2022/02/08 15:24:46;;;;;;;0.80;0.80;;;;;;;5.45;73.34;100275.48;103507;1276;138211;-64
2022/02/08 15:27:16;;;;;;;0.80;0.80;;;;;;;5.48;73.54;100263.13;103571;1276;107338;-66
2022/02/08 15:29:44;;;;;;;0.80;0.80;;;;;;;5.47;73.33;100257.31;103540;1276;99449;-66
2022/02/08 15:32:15;;;;;;;0.90;0.90;;;;;;;5.43;73.67;100264.02;103419;1276;137437;-67
2022/02/08 15:34:44;;;;;;;0.80;0.80;;;;;;;5.45;73.67;100258.39;103442;1276;94772;-65
2022/02/08 15:37:12;;;;;;;0.80;0.80;;;;;;;5.44;73.85;100260.86;103443;1276;138309;-62
2022/02/08 15:39:41;;;;;;;0.70;0.70;;;;;;;5.48;73.83;100257.84;103248;1276;291505;-67
2022/02/08 15:42:09;;;;;;;0.70;0.70;;;;;;;5.56;73.72;100260.42;103407;1276;138834;-67
2022/02/08 15:44:39;;;;;;;0.80;0.80;;;;;;;5.56;73.76;100257.95;103550;1276;108846;-66
2022/02/08 15:47:11;;;;;;;0.70;0.70;;;;;;;5.56;74.04;100256.19;103568;1276;94816;-66
2022/02/08 15:49:53;;;;;;;0.70;0.70;;;;;;;5.55;73.97;100253.92;103622;1276;138112;-66
2022/02/08 15:53:00;;;;;;;0.70;0.70;;;;;;;5.58;74.16;100250.89;103543;1276;108857;-67
2022/02/08 15:58:06;;;;;;;0.70;0.70;;;;;;;5.62;74.49;100244.86;103561;1276;109273;-66
2022/02/08 16:06:20;;;;;;;0.70;0.70;;;;;;;5.58;75.31;100244.36;103487;1276;138875;-66
2022/02/08 16:08:42;;;;;;;0.70;0.70;;;;;;;5.62;75.34;100235.20;103707;1276;99434;-66
2022/02/08 16:11:36;;;;;;;0.70;0.70;;;;;;;5.69;75.15;100235.83;103711;1276;109165;-66
2022/02/08 16:14:09;;;;;;;0.80;0.80;;;;;;;5.75;75.34;100234.55;103441;1276;137854;-66
2022/02/08 16:22:20;;;;;;;0.70;0.70;;;;;;;5.84;74.99;100230.23;103582;1276;99534;-65
2022/02/08 16:30:48;;;;;;;0.70;0.70;;;;;;;5.90;75.20;100227.88;103423;1276;138205;-66
2022/02/08 16:59:30;;;;;;;0.70;0.70;;;;;;;6.13;75.82;100205.99;103591;1276;108301;-66
2022/02/08 17:02:01;;;;;;;0.90;0.90;;;;;;;6.12;76.05;100206.54;103464;1276;139202;-64
2022/02/08 17:04:29;;;;;;;0.70;0.70;;;;;;;6.14;76.09;100207.04;103543;1276;108622;-64
2022/02/08 17:06:57;;;;;;;0.70;0.70;;;;;;;6.23;75.99;100206.06;103549;1276;139077;-66
2022/02/08 17:09:53;;;;;;;0.70;0.70;;;;;;;6.22;76.25;100197.61;103550;1276;94640;-66
2022/02/08 17:48:13;;;;;;;0.60;0.60;;;;;;;6.62;76.51;100197.64;103506;1276;138620;-64
2022/02/08 17:50:41;;;;;;;0.70;0.70;;;;;;;6.62;76.68;100194.81;103568;1276;94412;-66
2022/02/08 17:53:09;;;;;;;0.70;0.70;;;;;;;6.64;76.66;100191.77;103440;1276;108457;-63
2022/02/08 17:55:37;;;;;;;0.60;0.60;;;;;;;6.67;76.81;100192.97;103263;1276;138902;-66
2022/02/08 17:58:05;;;;;;;0.60;0.60;;;;;;;6.70;76.62;100195.06;103523;1276;108807;-66
2022/02/08 18:00:33;;;;;;;0.60;0.60;;;;;;;6.72;76.59;100191.85;103650;1276;137965;-68
2022/02/08 18:03:04;;;;;;;0.60;0.60;;;;;;;6.73;76.67;100191.48;103845;1276;94620;-69
2022/02/08 18:05:34;;;;;;;0.60;0.60;;;;;;;6.77;76.69;100198.66;103753;1276;107686;-67
2022/02/08 18:08:02;;;;;;;0.60;0.60;;;;;;;6.80;76.53;100195.80;103661;1276;138551;-65
2022/02/08 18:10:32;;;;;;;0.70;0.70;;;;;;;6.81;76.64;100194.02;103840;1276;110590;-68
2022/02/08 18:13:02;;;;;;;0.60;0.60;;;;;;;6.82;76.87;100191.72;103573;1276;138460;-63
2022/02/08 18:15:36;;;;;;;0.60;0.60;;;;;;;6.85;76.87;100198.72;103635;1276;94920;-66
2022/02/08 18:18:09;;;;;;;0.70;0.70;;;;;;;6.90;76.55;100199.36;103509;1275;138759;-67
2022/02/08 18:20:46;;;;;;;0.60;0.60;;;;;;;6.93;76.39;100197.04;103625;1276;97746;-66
2022/02/08 19:05:42;;;;;;;0.60;0.60;;;;;;;7.31;76.55;100208.10;103566;1276;108810;-68
2022/02/08 19:07:23;;;;;;;0.70;0.70;;;;;;;7.34;76.33;100209.48;103374;1276;137452;-66
2022/02/08 19:12:24;;;;;;;0.60;0.60;;;;;;;7.31;76.39;100212.70;103327;1276;138353;-67
2022/02/08 19:15:38;;;;;;;0.60;0.60;;;;;;;7.34;76.63;100213.36;103476;1276;100244;-67
2022/02/08 19:18:31;;;;;;;0.60;0.60;;;;;;;7.39;76.26;100223.34;103440;1276;138967;-65
2022/02/08 19:23:38;;;;;;;0.60;0.60;;;;;;;7.40;76.64;100232.16;103398;1276;95298;-66
2022/02/08 19:26:06;;;;;;;0.60;0.60;;;;;;;7.46;76.48;100232.59;103453;1276;138990;-66
2022/02/08 19:28:35;;;;;;;0.60;0.60;;;;;;;7.45;76.47;100234.38;103644;1276;99555;-66